Time;durP1;ratioP1;P1;durP2;ratioP2;P2;SDS_P1;SDS_P2;PMS_P1;PMS_P2;Temp;Humidity;BMP_temperature;BMP_pressure;BME280_temperature;BME280_humidity;BME280_pressure;Samples;Min_cycle;Max_cycle;Signal;HPM_P1;HPM_P2
2024/01/30 00:00:37;;;;;;;;;26.33;23.67;;;;;12.17;72.70;102452.09;5039692;28;62722;-55
2024/01/30 00:03:02;;;;;;;;;25.67;25.67;;;;;12.17;72.53;102442.28;5041640;28;45415;-55
2024/01/30 00:05:28;;;;;;;;;27.67;26.00;;;;;12.19;72.74;102448.47;5043334;28;45706;-55
2024/01/30 00:07:53;;;;;;;;;31.00;30.33;;;;;12.20;72.48;102446.66;5051534;28;72875;-55
2024/01/30 00:10:18;;;;;;;;;29.67;24.33;;;;;12.20;72.43;102447.56;5041968;28;49373;-56
2024/01/30 00:12:44;;;;;;;;;24.67;24.67;;;;;12.21;72.52;102449.28;5043798;28;45622;-59
2024/01/30 00:15:09;;;;;;;;;30.00;27.00;;;;;12.22;72.45;102442.16;5042921;28;45283;-55
2024/01/30 00:17:38;;;;;;;;;29.67;27.00;;;;;12.21;72.32;102449.28;5042253;28;46870;-56
2024/01/30 00:20:05;;;;;;;;;39.33;30.33;;;;;12.22;72.33;102456.38;5042469;28;45396;-54
2024/01/30 00:22:31;;;;;;;;;25.67;22.67;;;;;12.21;72.38;102459.94;5022605;28;45260;-55
2024/01/30 00:24:57;;;;;;;;;28.00;27.33;;;;;12.21;72.40;102454.59;5033553;28;45503;-55
2024/01/30 00:27:22;;;;;;;;;26.67;26.67;;;;;12.23;72.34;102457.25;5038615;28;72817;-55
2024/01/30 00:29:47;;;;;;;;;28.33;28.00;;;;;12.24;72.43;102461.66;5049045;28;73312;-56
2024/01/30 00:32:12;;;;;;;;;33.00;25.33;;;;;12.23;72.65;102460.78;5036469;28;55523;-55
2024/01/30 00:34:38;;;;;;;;;27.67;27.67;;;;;12.27;72.41;102468.69;5030092;28;45414;-56
2024/01/30 00:37:03;;;;;;;;;24.33;20.33;;;;;12.27;72.50;102458.91;5044899;28;47000;-55
2024/01/30 00:39:29;;;;;;;;;27.67;26.33;;;;;12.28;72.39;102460.66;5035416;28;45378;-55
2024/01/30 00:41:54;;;;;;;;;35.67;30.33;;;;;12.30;72.33;102460.59;5044244;28;66538;-56
2024/01/30 00:44:19;;;;;;;;;32.67;27.33;;;;;12.27;71.98;102458.91;5048810;28;45455;-56
2024/01/30 00:46:45;;;;;;;;;30.33;28.67;;;;;12.24;72.37;102451.88;5054928;28;74713;-54
2024/01/30 00:49:10;;;;;;;;;35.00;28.00;;;;;12.23;72.39;102462.59;5050261;28;45436;-56
2024/01/30 00:51:36;;;;;;;;;29.33;24.33;;;;;12.22;72.38;102455.50;5051752;28;68087;-55
2024/01/30 00:54:01;;;;;;;;;23.67;22.67;;;;;12.22;72.55;102458.16;5047069;28;45474;-55
2024/01/30 00:56:27;;;;;;;;;25.00;24.67;;;;;12.20;72.40;102452.88;5050669;28;45420;-56
2024/01/30 00:58:52;;;;;;;;;28.00;26.33;;;;;12.21;72.35;102459.94;5044708;28;45340;-55
2024/01/30 01:01:17;;;;;;;;;28.00;27.33;;;;;12.23;72.48;102462.59;5050387;28;67838;-56
2024/01/30 01:03:43;;;;;;;;;26.67;24.00;;;;;12.23;72.51;102465.25;5031543;28;45689;-56
2024/01/30 01:06:09;;;;;;;;;26.67;23.00;;;;;12.22;72.49;102461.69;5054650;28;46865;-56
2024/01/30 01:08:34;;;;;;;;;27.33;24.67;;;;;12.22;72.73;102459.03;5058131;28;73324;-56
2024/01/30 01:10:59;;;;;;;;;28.67;27.33;;;;;12.23;72.69;102463.47;5040024;28;68239;-57
2024/01/30 01:13:24;;;;;;;;;27.33;22.33;;;;;12.23;72.62;102463.47;5044695;28;65241;-55
2024/01/30 01:15:50;;;;;;;;;31.00;24.00;;;;;12.22;72.58;102456.38;5035994;28;70501;-56
2024/01/30 01:18:15;;;;;;;;;21.67;21.67;;;;;12.24;72.47;102453.66;5052812;28;45356;-56
2024/01/30 01:20:41;;;;;;;;;24.67;22.67;;;;;12.24;72.49;102448.31;5053002;28;45365;-54
2024/01/30 01:23:06;;;;;;;;;23.33;21.00;;;;;12.26;72.92;102448.28;5055374;28;54564;-56
2024/01/30 01:25:31;;;;;;;;;17.33;15.33;;;;;12.27;72.62;102455.34;5034738;28;45774;-56
2024/01/30 01:27:57;;;;;;;;;20.67;20.00;;;;;12.27;72.66;102442.00;5050146;28;63275;-56
2024/01/30 01:30:22;;;;;;;;;22.00;20.67;;;;;12.27;72.97;102445.56;5042548;28;45326;-56
2024/01/30 01:32:54;;;;;;;;;15.00;15.00;;;;;12.29;72.92;102451.72;5048247;28;66581;-55
2024/01/30 01:35:26;;;;;;;;;17.33;16.00;;;;;12.32;73.24;102446.28;5024609;28;47208;-56
2024/01/30 01:37:55;;;;;;;;;15.00;14.67;;;;;12.34;73.26;102449.78;5032280;28;45518;-55
2024/01/30 01:40:24;;;;;;;;;18.00;16.67;;;;;12.36;72.96;102439.94;5046736;28;45419;-56
2024/01/30 01:42:53;;;;;;;;;21.00;19.33;;;;;12.37;73.14;102444.34;5048502;28;45509;-56
2024/01/30 01:45:19;;;;;;;;;19.67;17.67;;;;;12.39;73.06;102442.50;5045486;28;46458;-55
2024/01/30 01:47:47;;;;;;;;;15.00;14.00;;;;;12.39;73.03;102437.16;5046510;28;45384;-56
2024/01/30 01:50:19;;;;;;;;;14.00;12.33;;;;;12.38;73.06;102448.78;5049388;28;45507;-56
2024/01/30 01:52:47;;;;;;;;;20.33;16.00;;;;;12.34;73.36;102446.25;5046219;28;45324;-56
2024/01/30 01:55:13;;;;;;;;;20.00;16.00;;;;;12.30;73.21;102444.59;5049023;28;46306;-56
2024/01/30 01:57:39;;;;;;;;;19.00;19.00;;;;;12.23;73.26;102447.44;5030142;28;45432;-56
2024/01/30 02:00:05;;;;;;;;;15.33;15.33;;;;;12.18;73.07;102445.84;5050241;28;55124;-55
2024/01/30 02:02:31;;;;;;;;;15.00;14.33;;;;;12.12;73.22;102446.03;5046522;28;45522;-55
2024/01/30 02:04:57;;;;;;;;;12.67;12.67;;;;;12.07;73.61;102446.16;5023522;28;46066;-55
2024/01/30 02:07:23;;;;;;;;;13.00;11.67;;;;;12.04;73.76;102452.47;5047511;28;45554;-56
2024/01/30 02:09:48;;;;;;;;;15.67;14.33;;;;;12.01;74.15;102444.56;5055573;28;45351;-56
2024/01/30 02:12:14;;;;;;;;;12.67;12.67;;;;;12.01;74.76;102449.91;5040450;28;69341;-56
2024/01/30 02:14:46;;;;;;;;;16.33;14.00;;;;;12.01;74.47;102449.91;5036583;28;75552;-56
2024/01/30 02:17:12;;;;;;;;;12.00;11.00;;;;;12.00;74.52;102444.63;5048002;28;45719;-55
2024/01/30 02:19:37;;;;;;;;;16.00;12.00;;;;;11.98;74.57;102450.00;5051616;28;45461;-56
2024/01/30 02:22:03;;;;;;;;;15.67;12.00;;;;;11.97;74.64;102437.56;5034793;28;70561;-56
2024/01/30 02:24:28;;;;;;;;;12.00;12.00;;;;;11.96;74.63;102438.50;5021210;28;46009;-56
2024/01/30 02:26:53;;;;;;;;;11.00;9.67;;;;;11.93;74.85;102438.56;5049742;28;72164;-56
2024/01/30 02:29:19;;;;;;;;;16.67;15.00;;;;;11.90;74.97;102436.84;5027340;28;67301;-55
2024/01/30 02:31:45;;;;;;;;;11.67;11.67;;;;;11.90;75.08;102433.28;5054549;28;45457;-56
2024/01/30 02:34:11;;;;;;;;;11.00;10.67;;;;;11.91;75.21;102435.06;5042884;28;47241;-56
2024/01/30 02:36:36;;;;;;;;;14.00;11.67;;;;;11.94;75.49;102434.94;5055027;28;56377;-55
2024/01/30 02:39:01;;;;;;;;;8.67;8.00;;;;;11.96;75.42;102437.63;5047454;28;57525;-54
2024/01/30 02:41:27;;;;;;;;;11.00;11.00;;;;;11.98;75.43;102435.78;5028327;28;45482;-55
2024/01/30 02:43:52;;;;;;;;;14.00;11.67;;;;;11.98;75.41;102439.34;5039185;28;54447;-54
2024/01/30 02:46:17;;;;;;;;;14.67;11.67;;;;;11.97;75.59;102447.34;5037531;28;73286;-56
2024/01/30 02:48:43;;;;;;;;;18.33;11.00;;;;;11.92;75.53;102442.13;5053007;28;45379;-57
2024/01/30 02:51:08;;;;;;;;;12.67;11.33;;;;;11.89;75.59;102436.91;5044276;28;70203;-56
2024/01/30 02:53:33;;;;;;;;;10.33;10.33;;;;;11.86;75.82;102440.53;5031455;28;75185;-56
2024/01/30 02:55:59;;;;;;;;;12.33;12.33;;;;;11.83;75.72;102434.41;5040825;28;65444;-56
2024/01/30 02:58:24;;;;;;;;;14.67;12.00;;;;;11.81;76.07;102428.25;5049860;28;67162;-55
2024/01/30 03:00:49;;;;;;;;;12.33;11.00;;;;;11.80;76.11;102426.50;5041234;28;67946;-56
2024/01/30 03:03:15;;;;;;;;;9.67;8.00;;;;;11.79;76.36;102420.28;5028395;28;74376;-56
2024/01/30 03:05:40;;;;;;;;;13.33;10.67;;;;;11.80;76.61;102422.03;5041627;28;69925;-56
2024/01/30 03:08:05;;;;;;;;;13.33;13.00;;;;;11.84;76.47;102422.84;5042043;28;68298;-56
2024/01/30 03:10:31;;;;;;;;;15.00;13.00;;;;;11.86;76.49;102436.97;5049943;28;45367;-55
2024/01/30 03:12:56;;;;;;;;;12.00;12.00;;;;;11.83;76.44;102443.28;5045494;28;63033;-56
2024/01/30 03:15:21;;;;;;;;;14.33;11.00;;;;;11.80;76.41;102431.81;5040351;28;73186;-56
2024/01/30 03:17:46;;;;;;;;;14.67;11.67;;;;;11.73;76.59;102432.03;5043398;28;68215;-56
2024/01/30 03:20:12;;;;;;;;;10.67;10.67;;;;;11.70;76.80;102429.41;5045589;28;45383;-54
2024/01/30 03:22:37;;;;;;;;;13.67;13.00;;;;;11.68;76.71;102422.38;5051300;28;45443;-56
2024/01/30 03:25:03;;;;;;;;;8.00;7.00;;;;;11.64;77.21;102423.41;5045761;28;68755;-56
2024/01/30 03:27:28;;;;;;;;;14.33;10.00;;;;;11.63;77.38;102430.53;5048236;28;45326;-56
2024/01/30 03:29:54;;;;;;;;;11.67;10.33;;;;;11.62;77.53;102441.25;5044841;28;45655;-56
2024/01/30 03:32:19;;;;;;;;;13.67;11.33;;;;;11.61;77.58;102445.69;5039268;28;75670;-55
2024/01/30 03:34:44;;;;;;;;;11.33;9.67;;;;;11.60;77.75;102435.94;5046964;28;71491;-55
2024/01/30 03:37:10;;;;;;;;;12.00;10.67;;;;;11.59;77.79;102434.22;5046616;28;45389;-55
2024/01/30 03:39:36;;;;;;;;;15.33;11.67;;;;;11.59;78.02;102436.88;5049216;28;69087;-56
2024/01/30 03:42:01;;;;;;;;;11.00;11.00;;;;;11.57;77.86;102441.34;5044120;28;47008;-56
2024/01/30 03:44:27;;;;;;;;;11.67;11.33;;;;;11.54;78.51;102447.66;5023572;28;45435;-56
2024/01/30 03:46:52;;;;;;;;;11.67;10.00;;;;;11.57;77.77;102439.56;5048250;28;68979;-56
2024/01/30 03:49:17;;;;;;;;;9.67;9.67;;;;;11.58;78.47;102438.66;5038069;28;69348;-55
2024/01/30 03:51:43;;;;;;;;;13.33;11.67;;;;;11.58;78.59;102432.44;5040720;28;45451;-56
2024/01/30 03:54:08;;;;;;;;;8.67;8.33;;;;;11.57;78.65;102425.38;5040562;28;45471;-56
2024/01/30 03:56:34;;;;;;;;;13.00;11.67;;;;;11.55;78.50;102429.84;5043510;28;45660;-56
2024/01/30 03:59:00;;;;;;;;;11.67;8.67;;;;;11.51;78.45;102430.88;5045831;28;67749;-56
2024/01/30 04:01:25;;;;;;;;;15.67;10.67;;;;;11.46;78.75;102417.69;5056935;28;46167;-56
2024/01/30 04:03:51;;;;;;;;;10.00;10.00;;;;;11.42;78.97;102413.38;5043076;28;73020;-54
2024/01/30 04:06:16;;;;;;;;;11.67;11.00;;;;;11.38;79.19;102414.34;5040623;28;45340;-55
2024/01/30 04:08:41;;;;;;;;;11.00;11.00;;;;;11.35;79.58;102422.44;5042498;28;68889;-55
2024/01/30 04:11:07;;;;;;;;;11.00;9.00;;;;;11.35;79.72;102419.75;5042676;28;51497;-56
2024/01/30 04:13:33;;;;;;;;;13.33;11.00;;;;;11.35;79.97;102420.63;5056442;28;45392;-56
2024/01/30 04:16:01;;;;;;;;;13.33;10.00;;;;;11.36;80.09;102425.03;5049193;28;45488;-55
2024/01/30 04:18:26;;;;;;;;;12.00;12.00;;;;;11.37;80.26;102415.28;5042064;28;45696;-56
2024/01/30 04:20:51;;;;;;;;;14.67;13.00;;;;;11.39;80.19;102413.44;5054197;28;46039;-56
2024/01/30 04:23:17;;;;;;;;;10.00;9.33;;;;;11.42;80.41;102424.88;5051223;28;45425;-58
2024/01/30 04:25:42;;;;;;;;;15.33;13.00;;;;;11.46;80.40;102415.03;5023808;28;45458;-56
2024/01/30 04:28:07;;;;;;;;;10.67;10.67;;;;;11.49;80.14;102414.94;5046766;28;67741;-56
2024/01/30 04:30:33;;;;;;;;;10.00;10.00;;;;;11.51;80.23;102413.09;5045542;28;72953;-55
2024/01/30 04:32:58;;;;;;;;;7.67;5.00;;;;;11.55;80.36;102413.88;5046946;28;45345;-57
2024/01/30 04:35:24;;;;;;;;;13.00;11.33;;;;;11.59;80.52;102410.22;5043331;28;62728;-56
2024/01/30 04:37:51;;;;;;;;;12.00;10.00;;;;;11.64;80.38;102415.41;5049437;28;45911;-56
2024/01/30 04:40:17;;;;;;;;;8.33;8.33;;;;;11.67;80.42;102413.53;5049345;28;45368;-56
2024/01/30 04:42:42;;;;;;;;;12.00;11.33;;;;;11.71;80.07;102423.19;5053253;28;45702;-56
2024/01/30 04:45:08;;;;;;;;;20.00;12.33;;;;;11.75;80.11;102419.50;5038785;28;68477;-56
2024/01/30 04:47:33;;;;;;;;;13.00;11.00;;;;;11.78;80.08;102425.69;5051641;28;45801;-54
2024/01/30 04:49:58;;;;;;;;;11.00;11.00;;;;;11.79;80.04;102428.28;5040137;28;76559;-55
2024/01/30 04:52:24;;;;;;;;;11.33;9.67;;;;;11.80;80.09;102429.16;5044504;28;72639;-56
2024/01/30 04:54:49;;;;;;;;;13.00;10.50;;;;;11.80;80.07;102429.16;5053271;28;45450;-56
2024/01/30 04:57:14;;;;;;;;;10.00;9.67;;;;;11.82;79.92;102438.00;5045483;28;56452;-55
2024/01/30 04:59:40;;;;;;;;;11.33;10.00;;;;;11.82;80.09;102433.53;5048855;28;75023;-55
2024/01/30 05:02:05;;;;;;;;;11.67;9.33;;;;;11.83;80.01;102432.59;5040309;28;68339;-55
2024/01/30 05:04:30;;;;;;;;;14.00;11.33;;;;;11.84;79.99;102433.50;5045025;28;45386;-56
2024/01/30 05:06:56;;;;;;;;;11.33;10.33;;;;;11.85;80.00;102436.13;5043298;28;69545;-54
2024/01/30 05:09:22;;;;;;;;;13.00;11.67;;;;;11.84;80.02;102441.50;5027376;28;75000;-56
2024/01/30 05:11:47;;;;;;;;;12.00;12.00;;;;;11.86;80.08;102444.97;5052410;28;45494;-56
2024/01/30 05:14:14;;;;;;;;;13.67;12.00;;;;;11.85;79.99;102445.88;5044114;28;68181;-55
2024/01/30 05:16:40;;;;;;;;;10.00;10.00;;;;;11.84;79.88;102446.84;5045449;28;45709;-56
2024/01/30 05:19:05;;;;;;;;;12.00;10.00;;;;;11.83;79.82;102453.94;5049180;28;45299;-56
2024/01/30 05:21:30;;;;;;;;;13.33;10.33;;;;;11.82;79.95;102457.50;5034673;28;68773;-56
2024/01/30 05:23:56;;;;;;;;;12.67;10.00;;;;;11.81;79.92;102461.13;5045662;28;69396;-56
2024/01/30 05:26:22;;;;;;;;;13.33;11.67;;;;;11.80;80.11;102463.81;5045334;28;70414;-58
2024/01/30 05:28:48;;;;;;;;;14.00;11.00;;;;;11.81;80.15;102465.56;5051249;28;47003;-56
2024/01/30 05:31:13;;;;;;;;;10.33;10.33;;;;;11.80;80.05;102470.03;5032737;28;45784;-56
2024/01/30 05:33:39;;;;;;;;;14.67;13.00;;;;;11.82;80.19;102472.66;5048719;28;45537;-56
2024/01/30 05:36:04;;;;;;;;;12.67;11.00;;;;;11.82;80.10;102473.50;5051994;28;45404;-55
2024/01/30 05:38:30;;;;;;;;;12.67;11.67;;;;;11.82;80.21;102470.00;5046828;28;48538;-55
2024/01/30 05:40:55;;;;;;;;;17.67;13.67;;;;;11.83;80.33;102472.59;5046978;28;45454;-57
2024/01/30 05:43:21;;;;;;;;;13.33;12.33;;;;;11.81;80.41;102477.13;5053028;28;45908;-56
2024/01/30 05:45:46;;;;;;;;;8.00;8.00;;;;;11.81;80.37;102474.47;5042416;28;45457;-56
2024/01/30 05:48:11;;;;;;;;;12.00;11.00;;;;;11.82;80.46;102480.66;5041707;28;75440;-56
2024/01/30 05:50:36;;;;;;;;;11.00;11.00;;;;;11.84;80.38;102492.16;5048917;28;57692;-55
2024/01/30 05:53:02;;;;;;;;;13.33;12.67;;;;;11.85;80.33;102493.88;5056304;28;68815;-56
2024/01/30 05:55:27;;;;;;;;;13.33;13.00;;;;;11.86;80.44;102496.53;5050137;28;45372;-56
2024/01/30 05:57:53;;;;;;;;;13.67;11.00;;;;;11.89;80.39;102498.22;5050449;28;70839;-55
2024/01/30 06:00:18;;;;;;;;;18.33;14.00;;;;;11.88;80.34;102500.00;5048336;28;45693;-56
2024/01/30 06:02:44;;;;;;;;;15.00;12.33;;;;;11.88;80.41;102497.34;5048770;28;45479;-56
2024/01/30 06:05:09;;;;;;;;;15.00;11.33;;;;;11.89;80.37;102500.91;5050330;28;65111;-57
2024/01/30 06:07:34;;;;;;;;;11.67;11.67;;;;;11.89;80.58;102504.44;5046520;28;46225;-56
2024/01/30 06:10:01;;;;;;;;;12.00;11.67;;;;;11.90;80.35;102503.50;5048566;28;73043;-56
2024/01/30 06:12:27;;;;;;;;;11.67;11.67;;;;;11.91;80.34;102501.72;5044900;28;45404;-56
2024/01/30 06:14:54;;;;;;;;;14.00;11.67;;;;;11.90;80.41;102506.19;5045515;28;45342;-56
2024/01/30 06:17:19;;;;;;;;;14.00;11.33;;;;;11.91;80.18;102502.59;5048363;28;45535;-56
2024/01/30 06:19:44;;;;;;;;;14.67;13.00;;;;;11.91;80.40;102509.72;5039062;28;73087;-56
2024/01/30 06:22:10;;;;;;;;;16.33;13.00;;;;;11.91;80.51;102507.94;5054402;28;60493;-56
2024/01/30 06:24:35;;;;;;;;;13.33;11.33;;;;;11.91;80.45;102513.28;5041266;28;45563;-55
2024/01/30 06:27:00;;;;;;;;;20.33;14.33;;;;;11.93;80.63;102518.56;5039063;28;46165;-56
2024/01/30 06:29:26;;;;;;;;;12.00;11.33;;;;;11.94;80.44;102517.59;5042788;28;58180;-57
2024/01/30 06:31:52;;;;;;;;;11.00;10.00;;;;;11.94;80.30;102527.41;5035274;28;45411;-56
2024/01/30 06:34:17;;;;;;;;;16.33;13.67;;;;;11.94;80.72;102522.94;5054589;28;45544;-56
2024/01/30 06:36:43;;;;;;;;;13.33;11.00;;;;;11.95;80.48;102535.41;5037569;28;46250;-55
2024/01/30 06:39:08;;;;;;;;;12.67;11.00;;;;;11.95;80.64;102530.06;5020273;28;45619;-55
2024/01/30 06:41:34;;;;;;;;;13.67;12.67;;;;;11.96;80.81;102528.28;5039128;28;45388;-57
2024/01/30 06:44:01;;;;;;;;;12.33;12.33;;;;;11.97;80.64;102528.25;5040758;28;45510;-56
2024/01/30 06:46:27;;;;;;;;;13.67;13.00;;;;;11.98;80.80;102532.66;5029614;28;46150;-55
2024/01/30 06:48:52;;;;;;;;;14.33;13.00;;;;;12.01;80.77;102531.72;5038801;28;45752;-56
2024/01/30 06:51:18;;;;;;;;;15.67;12.67;;;;;12.06;80.95;102538.66;5017545;28;46241;-56
2024/01/30 06:53:43;;;;;;;;;13.33;13.33;;;;;12.13;81.04;102538.47;5042177;28;67427;-55
2024/01/30 06:56:08;;;;;;;;;13.67;13.00;;;;;12.19;80.63;102538.28;5028379;28;48328;-56
2024/01/30 06:58:34;;;;;;;;;16.33;13.33;;;;;12.23;80.65;102532.81;5032820;28;45663;-55
2024/01/30 07:00:59;;;;;;;;;18.00;15.67;;;;;12.28;80.48;102540.69;5023846;28;45678;-56
2024/01/30 07:03:24;;;;;;;;;17.00;13.00;;;;;12.33;80.45;102545.88;5042785;28;45498;-57
2024/01/30 07:05:50;;;;;;;;;15.33;14.33;;;;;12.39;80.56;102543.91;5041909;28;71274;-56
2024/01/30 07:08:17;;;;;;;;;16.67;14.00;;;;;12.44;80.18;102542.88;5038434;28;73323;-56
2024/01/30 07:10:43;;;;;;;;;16.00;10.67;;;;;12.46;80.09;102546.41;5036084;28;45427;-57
2024/01/30 07:13:09;;;;;;;;;13.33;12.33;;;;;12.49;80.01;102555.19;5045396;28;45367;-56
2024/01/30 07:15:36;;;;;;;;;17.67;16.00;;;;;12.50;80.02;102553.38;5039914;28;46164;-56
2024/01/30 07:18:01;;;;;;;;;17.33;14.67;;;;;12.53;79.85;102561.31;5041008;28;45368;-54
2024/01/30 07:20:27;;;;;;;;;14.33;11.33;;;;;12.54;79.86;102558.59;5038378;28;46207;-55
2024/01/30 07:22:52;;;;;;;;;14.00;14.00;;;;;12.57;79.76;102568.31;5039068;28;65655;-56
2024/01/30 07:25:18;;;;;;;;;13.67;12.33;;;;;12.60;79.68;102570.88;5018577;28;45437;-48
2024/01/30 07:27:43;;;;;;;;;19.00;14.00;;;;;12.61;79.70;102564.63;5040956;28;45409;-51
2024/01/30 07:30:09;;;;;;;;;15.33;13.33;;;;;12.63;79.76;102576.09;5022655;28;63220;-51
2024/01/30 07:32:34;;;;;;;;;16.33;16.33;;;;;12.67;79.77;102576.88;5027429;28;45440;-52
2024/01/30 07:34:59;;;;;;;;;16.33;15.67;;;;;12.68;79.84;102582.19;5031403;28;72994;-51
2024/01/30 07:37:24;;;;;;;;;17.00;16.00;;;;;12.71;79.95;102583.88;5035077;28;45628;-46
2024/01/30 07:39:50;;;;;;;;;16.67;14.33;;;;;12.73;79.79;102590.06;5044170;28;68710;-51
2024/01/30 07:42:16;;;;;;;;;20.00;16.33;;;;;12.76;79.66;102594.44;5025083;28;61426;-52
2024/01/30 07:44:41;;;;;;;;;17.67;16.33;;;;;12.78;79.40;102597.94;5043659;28;46317;-52
2024/01/30 07:47:07;;;;;;;;;15.33;15.33;;;;;12.78;79.38;102596.13;5046427;28;73109;-51
2024/01/30 07:49:32;;;;;;;;;18.33;16.67;;;;;12.80;79.30;102596.06;5050902;28;45442;-49
2024/01/30 07:51:58;;;;;;;;;18.00;14.33;;;;;12.82;79.46;102602.25;5033599;28;70358;-48
2024/01/30 07:54:23;;;;;;;;;18.33;16.33;;;;;12.84;79.33;102605.75;5041439;28;75820;-54
2024/01/30 07:56:49;;;;;;;;;17.67;16.67;;;;;12.86;79.19;102607.44;5054686;28;45487;-51
2024/01/30 07:59:14;;;;;;;;;14.33;14.33;;;;;12.86;79.29;102607.44;5025494;28;45990;-52
2024/01/30 08:01:39;;;;;;;;;20.33;19.33;;;;;12.85;79.23;102608.38;5046503;28;45535;-50
2024/01/30 08:04:05;;;;;;;;;15.33;14.67;;;;;12.87;79.40;102614.53;5049623;28;51711;-51
2024/01/30 08:06:30;;;;;;;;;14.00;13.00;;;;;12.88;79.02;102618.06;5036621;28;68118;-49
2024/01/30 08:08:57;;;;;;;;;15.33;15.33;;;;;12.90;79.17;102613.56;5048729;28;67147;-50
2024/01/30 08:11:25;;;;;;;;;22.00;17.67;;;;;12.90;79.39;102625.13;5049557;28;45794;-49
2024/01/30 08:13:51;;;;;;;;;16.67;14.67;;;;;12.92;78.84;102622.41;5044077;28;46261;-47
2024/01/30 08:16:16;;;;;;;;;16.00;15.33;;;;;12.90;79.36;102632.25;5050433;28;45394;-50
2024/01/30 08:18:42;;;;;;;;;19.33;17.00;;;;;12.90;79.54;102635.78;5020128;28;68176;-49
2024/01/30 08:21:07;;;;;;;;;17.67;16.33;;;;;12.91;79.22;102639.34;5037343;28;45515;-54
2024/01/30 08:23:33;;;;;;;;;14.00;14.00;;;;;12.93;79.31;102639.31;5038338;28;46365;-49
2024/01/30 08:25:58;;;;;;;;;17.67;17.00;;;;;12.92;79.10;102635.78;5037803;28;45455;-49
2024/01/30 08:28:24;;;;;;;;;16.00;16.00;;;;;12.93;79.28;102641.97;5046792;28;65328;-51
2024/01/30 08:30:49;;;;;;;;;19.33;17.00;;;;;12.94;78.90;102647.25;5019441;28;45482;-51
2024/01/30 08:33:14;;;;;;;;;18.67;17.33;;;;;12.94;78.93;102657.09;5025685;28;53722;-52
2024/01/30 08:35:40;;;;;;;;;20.00;17.67;;;;;12.95;79.04;102653.50;5038551;28;45452;-50
2024/01/30 08:38:05;;;;;;;;;16.33;16.00;;;;;12.96;79.03;102655.22;5047225;28;68239;-48
2024/01/30 08:40:30;;;;;;;;;20.00;16.33;;;;;12.95;78.97;102656.19;5055670;28;45546;-48
2024/01/30 08:42:56;;;;;;;;;17.33;16.00;;;;;12.93;79.18;102666.00;5046131;28;45544;-48
2024/01/30 08:45:21;;;;;;;;;13.33;12.67;;;;;12.92;79.48;102665.16;5040883;28;64052;-50
2024/01/30 08:47:46;;;;;;;;;17.33;16.00;;;;;12.94;79.28;102662.44;5037023;28;67948;-52
2024/01/30 08:50:12;;;;;;;;;16.33;14.00;;;;;12.94;79.33;102665.09;5037347;28;45392;-51
2024/01/30 08:52:37;;;;;;;;;18.33;14.67;;;;;12.92;79.33;102667.81;5038201;28;46067;-49
2024/01/30 08:55:03;;;;;;;;;23.33;19.67;;;;;12.94;79.02;102679.31;5039961;28;73289;-48
2024/01/30 08:57:28;;;;;;;;;19.33;17.67;;;;;12.93;79.28;102677.56;5040576;28;45439;-52
2024/01/30 08:59:54;;;;;;;;;19.67;16.33;;;;;12.89;79.21;102681.25;5048952;28;45430;-52
2024/01/30 09:02:20;;;;;;;;;23.67;18.00;;;;;12.87;79.09;102681.31;5045687;28;45351;-52
2024/01/30 09:04:45;;;;;;;;;20.00;17.00;;;;;12.87;79.48;102694.66;5030648;28;45440;-51
2024/01/30 09:07:11;;;;;;;;;15.33;14.00;;;;;12.87;79.54;102686.66;5045734;28;45379;-52
2024/01/30 09:09:39;;;;;;;;;15.67;14.00;;;;;12.88;79.47;102687.50;5040887;28;45705;-51
2024/01/30 09:12:07;;;;;;;;;18.33;16.00;;;;;12.88;79.52;102679.50;5053764;28;46192;-52
2024/01/30 09:14:32;;;;;;;;;16.00;13.00;;;;;12.87;78.96;102691.13;5040643;28;45442;-49
2024/01/30 09:16:57;;;;;;;;;16.67;13.00;;;;;12.86;79.72;102697.38;5054044;28;45432;-49
2024/01/30 09:19:23;;;;;;;;;22.33;15.00;;;;;12.89;79.20;102697.28;5039683;28;57229;-52
2024/01/30 09:21:48;;;;;;;;;14.00;12.67;;;;;12.91;79.53;102703.47;5040537;28;74090;-51
2024/01/30 09:24:13;;;;;;;;;17.33;14.00;;;;;12.91;79.39;102701.66;5048134;28;70136;-51
2024/01/30 09:26:39;;;;;;;;;17.00;12.00;;;;;12.93;79.48;102704.28;5046203;28;68284;-51
2024/01/30 09:29:04;;;;;;;;;13.00;10.00;;;;;12.95;79.62;102704.25;5052107;28;45257;-52
2024/01/30 09:31:29;;;;;;;;;15.67;14.00;;;;;12.97;79.42;102711.28;5045445;28;61593;-49
2024/01/30 09:33:55;;;;;;;;;9.67;9.67;;;;;12.99;79.36;102721.94;5053432;28;73325;-52
2024/01/30 09:36:20;;;;;;;;;16.67;14.33;;;;;13.00;79.53;102721.88;5026661;28;45347;-51
2024/01/30 09:38:46;;;;;;;;;14.33;13.67;;;;;12.98;79.51;102723.72;5051861;28;45569;-50
2024/01/30 09:41:11;;;;;;;;;18.33;13.00;;;;;12.98;79.20;102723.72;5043116;28;46016;-51
2024/01/30 09:43:37;;;;;;;;;14.33;12.67;;;;;13.00;79.62;102719.22;5022362;28;45752;-52
2024/01/30 09:46:03;;;;;;;;;15.33;12.00;;;;;13.04;79.64;102723.53;5043878;28;45392;-52
2024/01/30 09:48:30;;;;;;;;;15.33;14.00;;;;;13.12;79.45;102730.47;5046479;28;45459;-52
2024/01/30 09:50:57;;;;;;;;;14.33;12.67;;;;;13.20;79.37;102723.06;5022819;28;46060;-52
2024/01/30 09:53:22;;;;;;;;;16.00;14.67;;;;;13.27;78.87;102738.00;5025640;28;45418;-50
2024/01/30 09:55:50;;;;;;;;;10.67;10.00;;;;;13.39;78.69;102739.47;5051272;28;51399;-52
2024/01/30 09:58:16;;;;;;;;;15.00;13.00;;;;;13.47;78.33;102729.38;5047916;28;45265;-52
2024/01/30 10:00:41;;;;;;;;;16.00;13.67;;;;;13.57;78.00;102741.53;5042974;28;46442;-49
2024/01/30 10:03:06;;;;;;;;;14.67;13.67;;;;;13.65;77.77;102735.97;5046323;28;45368;-50
2024/01/30 10:05:37;;;;;;;;;75.00;57.50;;;;;13.76;77.63;102734.72;5041747;28;47044;-51
2024/01/30 10:08:06;;;;;;;;;10.00;10.00;;;;;13.84;77.77;102736.22;5045417;28;45466;-52
2024/01/30 10:10:31;;;;;;;;;18.67;13.00;;;;;13.92;77.23;102743.13;5049402;28;45464;-51
2024/01/30 10:12:56;;;;;;;;;12.00;10.33;;;;;13.99;76.45;102747.34;5041065;28;67372;-49
2024/01/30 10:15:22;;;;;;;;;11.00;9.67;;;;;14.04;76.14;102740.91;5050205;28;59058;-47
2024/01/30 10:17:47;;;;;;;;;14.33;9.67;;;;;14.16;75.80;102746.78;5042999;28;45652;-51
2024/01/30 10:20:12;;;;;;;;;15.33;12.67;;;;;14.27;75.64;102751.75;5032401;28;66647;-50
2024/01/30 10:22:40;;;;;;;;;12.00;10.33;;;;;14.36;74.96;102749.59;5045567;28;45352;-51
2024/01/30 10:25:06;;;;;;;;;11.67;10.33;;;;;14.43;75.10;102760.09;5039916;28;46092;-50
2024/01/30 10:27:31;;;;;;;;;12.00;10.67;;;;;14.41;73.84;102756.63;5038249;28;45668;-51
2024/01/30 10:29:58;;;;;;;;;11.33;9.33;;;;;14.37;74.14;102754.03;5040174;28;55947;-51
2024/01/30 10:32:23;;;;;;;;;14.00;10.67;;;;;14.39;74.16;102754.88;5039890;28;72151;-52
2024/01/30 10:34:48;;;;;;;;;12.00;10.00;;;;;14.44;73.19;102761.88;5048972;28;45411;-52
2024/01/30 10:37:16;;;;;;;;;11.33;11.33;;;;;14.48;73.24;102763.50;5028938;28;45442;-51
2024/01/30 10:39:45;;;;;;;;;8.33;8.33;;;;;14.52;72.20;102763.34;5024911;28;45435;-52
2024/01/30 10:42:15;;;;;;;;;7.67;7.00;;;;;14.49;72.01;102759.91;5045497;28;45467;-50
2024/01/30 10:45:15;;;;;;;;;11.33;11.00;;;;;14.50;71.81;102769.69;5034981;28;45492;-52
2024/01/30 10:47:44;;;;;;;;;6.33;6.33;;;;;14.44;72.12;102781.47;5038142;28;45656;-52
2024/01/30 10:50:10;;;;;;;;;10.67;9.00;;;;;14.32;71.69;102784.59;5042165;28;46199;-52
2024/01/30 10:52:36;;;;;;;;;10.00;9.33;;;;;14.23;71.90;102775.06;5042951;28;45348;-51
2024/01/30 10:55:05;;;;;;;;;9.00;9.00;;;;;14.17;72.06;102786.84;5032473;28;45699;-52
2024/01/30 10:57:34;;;;;;;;;11.00;8.33;;;;;14.09;71.70;102788.91;5055275;28;45463;-52
2024/01/30 11:00:00;;;;;;;;;10.00;9.33;;;;;14.03;72.04;102799.81;5038858;28;47070;-51
2024/01/30 11:02:26;;;;;;;;;8.00;8.00;;;;;13.98;72.03;102797.28;5020777;28;45278;-50